< < Back
Terminal Aerodrome Forecast


Current Version              Previous Versions:   1  2  3  4  5  6  7  8  9  

Terminal Aerodrome Forecast

355
FTAK31 PAJN 201100
TAFAGS
TAF
PAGS 201121Z 2012/2112 12007KT P6SM -SHRA OVC050
     FM201700 16009KT 6SM -SHRA BR SCT020 BKN030 OVC040
     FM210000 17007KT P6SM -SHRA SCT020 BKN035 OVC040
     FM210400 VRB04KT P6SM -SHRA BKN035 OVC040
     FM210700 VRB03KT 5SM BR VCSH FEW005 BKN050
      AMD NOT SKED=

Latest METAR

036
SAUS70 KWBC 202100 RRI
MTRAGS
METAR KAGS 202053Z 22005KT 10SM CLR 24/08 A2998 RMK AO2 SLP151 T02440083
56023


USA.gov is the U.S. government's official web portal to all federal, state and local government web resources and services.